Belgium, WI (53004)

12:23 AM CDT am 27. September 2016 (GMT -0500)
Silver Beach | | Change Station

Höhe 614 ft 43.51 °N, 87.79 °W | Updated 9 seconds ago

Clear
Heiter
51.3 °F
gefühlte 51.3 °F
N
0.0
Wind Wechselnd Wind aus West

Heute
Max. -- | schwach -- °F
--% Regenrisiko
Gestern
Max. -- | schwach -- °F
Precip. -- inch
Druck 29.80 inch
Sichtweite 10.0 Meilen
Wolken Heiter
Taupunkt 44 °F
Feuchtigkeit 78%
Regen 0.00 inch
Schneehöhe Nicht verfügbar..
6:44 AM 6:38 PM
Letztes Viertel, 14% visible
METAR KETB 270515Z AUTO 24007KT 10SM CLR 11/03 A2980 RMK AO2
Druck 29.80 inch
Sichtweite 10.0 Meilen
Wolken Heiter
Taupunkt 44 °F
Feuchtigkeit 78%
Regen 0.00 inch
Schneehöhe Nicht verfügbar..
6:44 AM 6:38 PM
Letztes Viertel, 14% visible
METAR KETB 270515Z AUTO 24007KT 10SM CLR 11/03 A2980 RMK AO2

10-Day Weather Forecast

Almanac

Astronomie

Sep. 27, 2016 Aufgang Untergang
Genaue Zeit
Bürgerliche Dämmerung
Nautische Dämmerung
Astronomische Dämmerung
Mond
Länge des sichtbaren Lichts
Tageslänge
Tomorrow will be .
, % of the Moon is Illuminated

Heutige Rekorde

State Highs State Lows

Community

WunderPhotos

Upload Photos

1,942,037 Fotos hochgeladen!

WunderBlog® & News

Nearby

Luftqualität

  Luftqualität LQ Index Schadstoff
Not available.

Schneehöhe

Station Depth Höhe

Erdbebenaktivität

Stadt Distance Mag. Time & Date
Minimum magnitude displayed is 2.5.

küstennahe Wassertemperaturen

Ort Temperatur

Stations

Wetterstationen in der Umgebung

Stationsstandort Temp. Windchill Taupunkt Feuchtigkeit Wind Precip. Höhe Aktualisiert Art
                   

Watches & Warnings

There are currently no watches in effect.